sensor_id;sensor_type;location;lat;lon;timestamp;pressure;altitude;pressure_sealevel;temperature;humidity
38054;BME280;23859;50.672;7.164;2023-02-18T00:00:18;101478.91;;;12.57;95.23
38054;BME280;23859;50.672;7.164;2023-02-18T00:02:45;101489.06;;;12.63;95.18
38054;BME280;23859;50.672;7.164;2023-02-18T00:05:12;101485.66;;;12.61;94.93
38054;BME280;23859;50.672;7.164;2023-02-18T00:07:39;101488.81;;;12.66;94.31
38054;BME280;23859;50.672;7.164;2023-02-18T00:10:09;101494.41;;;12.63;94.25
38054;BME280;23859;50.672;7.164;2023-02-18T00:12:36;101496.09;;;12.64;94.82
38054;BME280;23859;50.672;7.164;2023-02-18T00:15:02;101401.16;;;12.10;93.96
38054;BME280;23859;50.672;7.164;2023-02-18T00:17:29;101494.91;;;12.57;94.73
38054;BME280;23859;50.672;7.164;2023-02-18T00:19:55;101484.66;;;12.73;94.31
38054;BME280;23859;50.672;7.164;2023-02-18T00:22:22;101480.59;;;12.58;94.80
38054;BME280;23859;50.672;7.164;2023-02-18T00:24:48;101485.06;;;12.58;94.85
38054;BME280;23859;50.672;7.164;2023-02-18T00:27:14;101485.94;;;12.58;95.01
38054;BME280;23859;50.672;7.164;2023-02-18T00:29:40;101482.88;;;12.62;94.95
38054;BME280;23859;50.672;7.164;2023-02-18T00:32:07;101483.72;;;12.63;94.35
38054;BME280;23859;50.672;7.164;2023-02-18T00:34:33;101484.47;;;12.65;94.40
38054;BME280;23859;50.672;7.164;2023-02-18T00:36:59;101478.41;;;12.63;94.39
38054;BME280;23859;50.672;7.164;2023-02-18T00:39:25;101475.78;;;12.52;94.58
38054;BME280;23859;50.672;7.164;2023-02-18T00:41:51;101470.59;;;12.51;95.30
38054;BME280;23859;50.672;7.164;2023-02-18T00:44:17;101470.19;;;12.55;95.07
38054;BME280;23859;50.672;7.164;2023-02-18T00:46:43;101481.63;;;12.46;94.90
38054;BME280;23859;50.672;7.164;2023-02-18T00:49:09;101488.41;;;12.39;95.59
38054;BME280;23859;50.672;7.164;2023-02-18T00:51:36;101485.91;;;12.27;96.76
38054;BME280;23859;50.672;7.164;2023-02-18T00:54:02;101460.56;;;12.43;96.20
38054;BME280;23859;50.672;7.164;2023-02-18T00:56:28;101459.09;;;12.39;96.05
38054;BME280;23859;50.672;7.164;2023-02-18T00:58:54;101448.94;;;12.33;97.20
38054;BME280;23859;50.672;7.164;2023-02-18T01:01:20;101454.06;;;12.25;97.63
38054;BME280;23859;50.672;7.164;2023-02-18T01:03:46;101448.63;;;12.16;98.28
38054;BME280;23859;50.672;7.164;2023-02-18T01:06:12;101441.25;;;12.19;98.19
38054;BME280;23859;50.672;7.164;2023-02-18T01:08:39;101442.06;;;12.20;98.41
38054;BME280;23859;50.672;7.164;2023-02-18T01:11:06;101456.72;;;12.25;98.40
38054;BME280;23859;50.672;7.164;2023-02-18T01:13:33;101451.41;;;12.25;98.63
38054;BME280;23859;50.672;7.164;2023-02-18T01:15:59;101449.19;;;12.30;98.65
38054;BME280;23859;50.672;7.164;2023-02-18T01:18:26;101441.19;;;12.30;98.60
38054;BME280;23859;50.672;7.164;2023-02-18T01:20:52;101344.47;;;11.88;98.05
38054;BME280;23859;50.672;7.164;2023-02-18T01:23:19;101452.03;;;12.49;97.86
38054;BME280;23859;50.672;7.164;2023-02-18T01:25:45;101458.00;;;12.42;98.35
38054;BME280;23859;50.672;7.164;2023-02-18T01:28:13;101451.38;;;12.36;98.66
38054;BME280;23859;50.672;7.164;2023-02-18T01:30:40;101437.69;;;12.30;99.14
38054;BME280;23859;50.672;7.164;2023-02-18T01:33:06;101360.94;;;11.82;99.85
38054;BME280;23859;50.672;7.164;2023-02-18T01:35:33;101432.00;;;12.23;99.63
38054;BME280;23859;50.672;7.164;2023-02-18T01:37:59;101426.78;;;12.33;99.55
38054;BME280;23859;50.672;7.164;2023-02-18T01:40:28;101429.56;;;12.31;99.21
38054;BME280;23859;50.672;7.164;2023-02-18T01:42:54;101438.03;;;12.36;99.35
38054;BME280;23859;50.672;7.164;2023-02-18T01:45:39;101415.00;;;12.35;99.32
38054;BME280;23859;50.672;7.164;2023-02-18T01:48:17;101410.78;;;12.33;99.54
38054;BME280;23859;50.672;7.164;2023-02-18T01:50:51;101416.03;;;12.23;100.00
38054;BME280;23859;50.672;7.164;2023-02-18T01:53:21;101406.13;;;12.14;100.00
38054;BME280;23859;50.672;7.164;2023-02-18T01:55:50;101399.69;;;12.17;100.00
38054;BME280;23859;50.672;7.164;2023-02-18T01:58:17;101398.03;;;12.05;100.00
38054;BME280;23859;50.672;7.164;2023-02-18T02:00:43;101405.06;;;12.06;100.00
38054;BME280;23859;50.672;7.164;2023-02-18T02:03:09;101405.88;;;12.17;100.00
38054;BME280;23859;50.672;7.164;2023-02-18T02:05:35;101400.25;;;12.31;100.00
38054;BME280;23859;50.672;7.164;2023-02-18T02:08:02;101405.75;;;12.19;100.00
38054;BME280;23859;50.672;7.164;2023-02-18T02:14:23;101402.63;;;12.14;100.00
38054;BME280;23859;50.672;7.164;2023-02-18T02:25:24;101380.34;;;12.35;100.00
38054;BME280;23859;50.672;7.164;2023-02-18T02:36:40;101358.75;;;12.18;100.00
38054;BME280;23859;50.672;7.164;2023-02-18T02:42:03;101351.16;;;12.13;100.00
38054;BME280;23859;50.672;7.164;2023-02-18T02:44:46;101347.41;;;12.05;100.00
38054;BME280;23859;50.672;7.164;2023-02-18T02:47:29;101358.50;;;11.90;100.00
38054;BME280;23859;50.672;7.164;2023-02-18T02:50:05;101339.13;;;11.88;100.00
38054;BME280;23859;50.672;7.164;2023-02-18T02:52:37;101334.59;;;11.79;100.00
38054;BME280;23859;50.672;7.164;2023-02-18T02:55:09;101340.88;;;11.78;100.00
38054;BME280;23859;50.672;7.164;2023-02-18T02:57:51;101330.88;;;11.91;100.00
38054;BME280;23859;50.672;7.164;2023-02-18T03:08:58;101331.25;;;11.97;100.00
38054;BME280;23859;50.672;7.164;2023-02-18T03:11:28;101331.47;;;11.94;100.00
38054;BME280;23859;50.672;7.164;2023-02-18T03:17:22;101313.69;;;11.95;100.00
38054;BME280;23859;50.672;7.164;2023-02-18T03:20:09;101305.72;;;11.95;100.00
38054;BME280;23859;50.672;7.164;2023-02-18T03:22:40;101304.66;;;12.06;100.00
38054;BME280;23859;50.672;7.164;2023-02-18T03:25:09;101304.09;;;12.23;100.00
38054;BME280;23859;50.672;7.164;2023-02-18T03:27:45;101294.34;;;12.33;98.70
38054;BME280;23859;50.672;7.164;2023-02-18T03:30:40;101297.59;;;12.37;98.96
38054;BME280;23859;50.672;7.164;2023-02-18T03:33:12;101195.06;;;11.91;98.32
38054;BME280;23859;50.672;7.164;2023-02-18T03:35:41;101274.31;;;12.59;95.86
38054;BME280;23859;50.672;7.164;2023-02-18T03:38:19;101278.19;;;12.55;96.49
38054;BME280;23859;50.672;7.164;2023-02-18T03:40:46;101263.56;;;12.70;94.85
38054;BME280;23859;50.672;7.164;2023-02-18T03:43:12;101267.28;;;12.58;95.82
38054;BME280;23859;50.672;7.164;2023-02-18T03:45:38;101256.63;;;12.58;95.66
38054;BME280;23859;50.672;7.164;2023-02-18T03:48:05;101262.53;;;12.62;95.66
38054;BME280;23859;50.672;7.164;2023-02-18T03:50:31;101258.41;;;12.58;95.55
38054;BME280;23859;50.672;7.164;2023-02-18T03:52:57;101254.25;;;12.64;95.47
38054;BME280;23859;50.672;7.164;2023-02-18T03:55:25;101243.53;;;12.55;96.08
38054;BME280;23859;50.672;7.164;2023-02-18T03:57:51;101256.09;;;12.64;95.68
38054;BME280;23859;50.672;7.164;2023-02-18T04:00:17;101259.81;;;12.82;93.88
38054;BME280;23859;50.672;7.164;2023-02-18T04:02:44;101259.78;;;12.72;93.85
38054;BME280;23859;50.672;7.164;2023-02-18T04:05:10;101261.25;;;12.86;92.80
38054;BME280;23859;50.672;7.164;2023-02-18T04:07:36;101260.16;;;12.88;92.44
38054;BME280;23859;50.672;7.164;2023-02-18T04:10:04;101255.94;;;12.95;91.33
38054;BME280;23859;50.672;7.164;2023-02-18T04:12:30;101259.34;;;12.97;91.78
38054;BME280;23859;50.672;7.164;2023-02-18T04:14:57;101259.88;;;12.91;91.96
38054;BME280;23859;50.672;7.164;2023-02-18T04:17:24;101251.28;;;12.88;92.06
38054;BME280;23859;50.672;7.164;2023-02-18T04:19:50;101250.09;;;13.01;91.45
38054;BME280;23859;50.672;7.164;2023-02-18T04:22:16;101254.72;;;12.99;91.55
38054;BME280;23859;50.672;7.164;2023-02-18T04:24:42;101256.97;;;12.94;92.15
38054;BME280;23859;50.672;7.164;2023-02-18T04:27:08;101258.94;;;13.11;90.89
38054;BME280;23859;50.672;7.164;2023-02-18T04:29:34;101254.84;;;12.98;91.52
38054;BME280;23859;50.672;7.164;2023-02-18T04:32:00;101259.09;;;13.10;90.49
38054;BME280;23859;50.672;7.164;2023-02-18T04:34:26;101248.72;;;13.07;90.54
38054;BME280;23859;50.672;7.164;2023-02-18T04:36:52;101235.78;;;13.12;90.50
38054;BME280;23859;50.672;7.164;2023-02-18T04:39:18;101235.78;;;13.12;89.87
38054;BME280;23859;50.672;7.164;2023-02-18T04:41:44;101226.81;;;13.13;90.15
38054;BME280;23859;50.672;7.164;2023-02-18T04:44:10;101232.38;;;12.91;91.56
38054;BME280;23859;50.672;7.164;2023-02-18T04:46:36;101237.84;;;12.99;91.22
38054;BME280;23859;50.672;7.164;2023-02-18T04:49:02;101235.28;;;12.88;91.47
38054;BME280;23859;50.672;7.164;2023-02-18T04:51:29;101230.56;;;13.01;91.00
38054;BME280;23859;50.672;7.164;2023-02-18T04:53:55;101228.59;;;13.03;90.99
38054;BME280;23859;50.672;7.164;2023-02-18T04:56:21;101053.72;;;11.83;91.46
38054;BME280;23859;50.672;7.164;2023-02-18T04:58:47;101232.41;;;13.10;90.37
38054;BME280;23859;50.672;7.164;2023-02-18T05:01:13;101227.34;;;13.07;90.11
38054;BME280;23859;50.672;7.164;2023-02-18T05:03:39;101219.59;;;13.04;90.83
38054;BME280;23859;50.672;7.164;2023-02-18T05:06:05;101217.78;;;12.95;91.13
38054;BME280;23859;50.672;7.164;2023-02-18T05:08:31;101220.00;;;12.90;91.42
38054;BME280;23859;50.672;7.164;2023-02-18T05:10:58;101229.84;;;12.99;90.78
38054;BME280;23859;50.672;7.164;2023-02-18T05:13:24;101220.72;;;13.01;90.99
38054;BME280;23859;50.672;7.164;2023-02-18T05:15:50;101217.22;;;13.01;90.63
38054;BME280;23859;50.672;7.164;2023-02-18T05:18:16;101215.84;;;13.16;89.48
38054;BME280;23859;50.672;7.164;2023-02-18T05:20:43;101220.72;;;13.01;90.19
38054;BME280;23859;50.672;7.164;2023-02-18T05:23:09;101220.47;;;13.14;89.57
38054;BME280;23859;50.672;7.164;2023-02-18T05:25:35;101209.41;;;13.18;89.25
38054;BME280;23859;50.672;7.164;2023-02-18T05:28:01;101214.03;;;13.07;90.14
38054;BME280;23859;50.672;7.164;2023-02-18T05:30:27;101206.59;;;13.10;90.07
38054;BME280;23859;50.672;7.164;2023-02-18T05:32:53;101204.75;;;13.11;89.29
38054;BME280;23859;50.672;7.164;2023-02-18T05:35:19;101195.91;;;13.10;89.21
38054;BME280;23859;50.672;7.164;2023-02-18T05:37:45;101209.22;;;13.01;89.42
38054;BME280;23859;50.672;7.164;2023-02-18T05:40:12;101194.56;;;12.86;90.69
38054;BME280;23859;50.672;7.164;2023-02-18T05:42:38;101204.25;;;12.87;90.51
38054;BME280;23859;50.672;7.164;2023-02-18T05:45:04;101193.31;;;12.90;90.30
38054;BME280;23859;50.672;7.164;2023-02-18T05:47:30;101193.03;;;12.93;90.24
38054;BME280;23859;50.672;7.164;2023-02-18T05:49:56;101182.00;;;13.07;89.21
38054;BME280;23859;50.672;7.164;2023-02-18T05:52:22;101193.19;;;12.91;89.78
38054;BME280;23859;50.672;7.164;2023-02-18T05:54:48;101189.69;;;13.00;89.38
38054;BME280;23859;50.672;7.164;2023-02-18T05:57:14;101186.91;;;13.02;89.07
38054;BME280;23859;50.672;7.164;2023-02-18T05:59:40;101192.94;;;12.94;89.81
38054;BME280;23859;50.672;7.164;2023-02-18T06:02:07;101185.47;;;12.98;89.60
38054;BME280;23859;50.672;7.164;2023-02-18T06:04:33;101184.84;;;12.85;89.86
38054;BME280;23859;50.672;7.164;2023-02-18T06:06:59;101174.91;;;12.87;90.12
38054;BME280;23859;50.672;7.164;2023-02-18T06:09:25;101184.34;;;12.91;90.11
38054;BME280;23859;50.672;7.164;2023-02-18T06:11:51;101093.13;;;12.18;90.33
38054;BME280;23859;50.672;7.164;2023-02-18T06:14:17;101183.41;;;12.71;90.73
38054;BME280;23859;50.672;7.164;2023-02-18T06:16:43;101176.66;;;12.67;90.39
38054;BME280;23859;50.672;7.164;2023-02-18T06:19:09;101174.94;;;12.57;91.54
38054;BME280;23859;50.672;7.164;2023-02-18T06:21:35;101170.44;;;12.58;91.09
38054;BME280;23859;50.672;7.164;2023-02-18T06:24:02;101169.97;;;12.43;92.03
38054;BME280;23859;50.672;7.164;2023-02-18T06:26:28;101173.13;;;12.28;93.01
38054;BME280;23859;50.672;7.164;2023-02-18T06:28:54;101166.31;;;12.14;93.86
38054;BME280;23859;50.672;7.164;2023-02-18T06:31:20;101172.75;;;12.12;93.72
38054;BME280;23859;50.672;7.164;2023-02-18T06:33:46;101164.03;;;12.10;94.05
38054;BME280;23859;50.672;7.164;2023-02-18T06:36:12;101158.63;;;12.11;93.46
38054;BME280;23859;50.672;7.164;2023-02-18T06:38:40;101154.41;;;12.18;93.33
38054;BME280;23859;50.672;7.164;2023-02-18T06:41:07;101154.91;;;12.33;91.82
38054;BME280;23859;50.672;7.164;2023-02-18T06:43:33;101153.88;;;12.24;92.05
38054;BME280;23859;50.672;7.164;2023-02-18T06:45:59;101156.56;;;12.24;91.40
38054;BME280;23859;50.672;7.164;2023-02-18T06:48:26;101158.50;;;12.22;91.70
38054;BME280;23859;50.672;7.164;2023-02-18T06:50:52;101147.75;;;12.33;91.00
38054;BME280;23859;50.672;7.164;2023-02-18T06:53:18;101152.72;;;12.47;89.33
38054;BME280;23859;50.672;7.164;2023-02-18T06:55:44;101150.75;;;12.49;89.74
38054;BME280;23859;50.672;7.164;2023-02-18T06:58:11;101154.75;;;12.64;88.48
38054;BME280;23859;50.672;7.164;2023-02-18T07:00:38;101166.84;;;12.68;87.60
38054;BME280;23859;50.672;7.164;2023-02-18T07:03:04;101157.84;;;12.69;88.00
38054;BME280;23859;50.672;7.164;2023-02-18T07:05:30;101165.31;;;12.75;86.92
38054;BME280;23859;50.672;7.164;2023-02-18T07:07:57;101171.00;;;12.61;87.78
38054;BME280;23859;50.672;7.164;2023-02-18T07:10:23;101167.66;;;12.59;87.52
38054;BME280;23859;50.672;7.164;2023-02-18T07:12:49;101160.78;;;12.66;86.54
38054;BME280;23859;50.672;7.164;2023-02-18T07:15:15;101157.31;;;12.75;85.84
38054;BME280;23859;50.672;7.164;2023-02-18T07:17:41;101154.22;;;12.79;85.91
38054;BME280;23859;50.672;7.164;2023-02-18T07:20:08;101155.78;;;12.82;85.51
38054;BME280;23859;50.672;7.164;2023-02-18T07:22:34;101166.28;;;12.74;85.04
38054;BME280;23859;50.672;7.164;2023-02-18T07:25:00;101168.69;;;12.77;84.79
38054;BME280;23859;50.672;7.164;2023-02-18T07:27:26;101179.78;;;12.82;84.53
38054;BME280;23859;50.672;7.164;2023-02-18T07:29:52;101160.34;;;13.00;82.61
38054;BME280;23859;50.672;7.164;2023-02-18T07:32:19;101186.34;;;13.08;82.54
38054;BME280;23859;50.672;7.164;2023-02-18T07:34:45;101178.19;;;13.00;83.35
38054;BME280;23859;50.672;7.164;2023-02-18T07:37:11;101183.53;;;13.09;82.16
38054;BME280;23859;50.672;7.164;2023-02-18T07:39:44;101179.78;;;13.21;82.04
38054;BME280;23859;50.672;7.164;2023-02-18T07:42:12;101195.63;;;13.32;80.96
38054;BME280;23859;50.672;7.164;2023-02-18T07:44:39;101200.97;;;13.32;80.59
38054;BME280;23859;50.672;7.164;2023-02-18T07:47:07;101199.16;;;13.32;80.23
38054;BME280;23859;50.672;7.164;2023-02-18T07:49:33;101207.72;;;13.27;81.50
38054;BME280;23859;50.672;7.164;2023-02-18T07:52:00;101195.78;;;13.30;81.64
38054;BME280;23859;50.672;7.164;2023-02-18T07:54:26;101212.66;;;13.50;79.46
38054;BME280;23859;50.672;7.164;2023-02-18T07:56:52;101194.09;;;13.20;80.75
38054;BME280;23859;50.672;7.164;2023-02-18T07:59:20;101200.31;;;13.39;80.27
38054;BME280;23859;50.672;7.164;2023-02-18T08:01:46;101200.31;;;13.39;80.67
38054;BME280;23859;50.672;7.164;2023-02-18T08:04:12;101202.69;;;13.24;80.57
38054;BME280;23859;50.672;7.164;2023-02-18T08:06:42;101209.78;;;13.14;80.48
38054;BME280;23859;50.672;7.164;2023-02-18T08:09:08;101202.63;;;13.05;81.43
38054;BME280;23859;50.672;7.164;2023-02-18T08:11:35;101199.25;;;13.12;82.19
38054;BME280;23859;50.672;7.164;2023-02-18T08:14:01;101211.91;;;13.20;81.64
38054;BME280;23859;50.672;7.164;2023-02-18T08:16:28;101189.59;;;13.21;81.97
38054;BME280;23859;50.672;7.164;2023-02-18T08:18:54;101199.41;;;13.11;81.74
38054;BME280;23859;50.672;7.164;2023-02-18T08:21:22;101197.84;;;12.99;81.94
38054;BME280;23859;50.672;7.164;2023-02-18T08:23:49;101183.81;;;13.16;81.51
38054;BME280;23859;50.672;7.164;2023-02-18T08:26:15;101198.44;;;13.12;80.45
38054;BME280;23859;50.672;7.164;2023-02-18T08:28:43;101193.09;;;13.12;80.96
38054;BME280;23859;50.672;7.164;2023-02-18T08:31:21;101193.78;;;13.14;80.95
38054;BME280;23859;50.672;7.164;2023-02-18T08:33:48;101225.38;;;12.99;82.04
38054;BME280;23859;50.672;7.164;2023-02-18T08:36:14;101228.88;;;13.00;82.37
38054;BME280;23859;50.672;7.164;2023-02-18T08:38:40;101226.56;;;12.86;85.03
38054;BME280;23859;50.672;7.164;2023-02-18T08:41:08;101218.13;;;12.81;85.89
38054;BME280;23859;50.672;7.164;2023-02-18T08:43:35;101227.78;;;12.82;86.34
38054;BME280;23859;50.672;7.164;2023-02-18T08:46:01;101236.31;;;12.76;86.56
38054;BME280;23859;50.672;7.164;2023-02-18T08:48:28;101239.00;;;12.76;87.65
38054;BME280;23859;50.672;7.164;2023-02-18T08:50:54;101240.25;;;12.72;87.86
38054;BME280;23859;50.672;7.164;2023-02-18T08:53:21;101239.81;;;12.67;87.81
38054;BME280;23859;50.672;7.164;2023-02-18T08:55:47;101250.75;;;12.64;89.11
38054;BME280;23859;50.672;7.164;2023-02-18T08:58:13;101261.06;;;12.78;89.57
38054;BME280;23859;50.672;7.164;2023-02-18T09:00:41;101268.03;;;12.90;88.31
38054;BME280;23859;50.672;7.164;2023-02-18T09:03:08;101265.59;;;12.87;89.47
38054;BME280;23859;50.672;7.164;2023-02-18T09:05:35;101273.44;;;12.59;93.68
38054;BME280;23859;50.672;7.164;2023-02-18T09:08:01;101288.69;;;12.47;94.47
38054;BME280;23859;50.672;7.164;2023-02-18T09:10:27;101269.38;;;12.34;95.21
38054;BME280;23859;50.672;7.164;2023-02-18T09:12:53;101287.00;;;12.26;94.55
38054;BME280;23859;50.672;7.164;2023-02-18T09:15:19;101301.63;;;12.31;96.42
38054;BME280;23859;50.672;7.164;2023-02-18T09:17:45;101296.63;;;12.17;99.74
38054;BME280;23859;50.672;7.164;2023-02-18T09:20:11;101300.47;;;11.93;100.00
38054;BME280;23859;50.672;7.164;2023-02-18T09:22:38;101289.94;;;11.71;100.00
38054;BME280;23859;50.672;7.164;2023-02-18T09:25:04;101288.50;;;11.98;100.00
38054;BME280;23859;50.672;7.164;2023-02-18T09:27:30;101275.94;;;11.90;100.00
38054;BME280;23859;50.672;7.164;2023-02-18T09:29:56;101271.78;;;11.96;100.00
38054;BME280;23859;50.672;7.164;2023-02-18T09:32:22;101262.81;;;11.97;100.00
38054;BME280;23859;50.672;7.164;2023-02-18T09:34:48;101253.72;;;12.00;100.00
38054;BME280;23859;50.672;7.164;2023-02-18T09:37:14;101246.19;;;12.05;93.13
38054;BME280;23859;50.672;7.164;2023-02-18T09:39:40;101236.13;;;12.08;91.79
38054;BME280;23859;50.672;7.164;2023-02-18T09:42:12;101240.34;;;12.31;90.65
38054;BME280;23859;50.672;7.164;2023-02-18T09:44:51;101231.63;;;12.29;90.31
38054;BME280;23859;50.672;7.164;2023-02-18T09:47:36;101226.22;;;12.40;84.02
38054;BME280;23859;50.672;7.164;2023-02-18T09:50:26;101216.34;;;12.61;83.94
38054;BME280;23859;50.672;7.164;2023-02-18T09:52:53;101215.66;;;12.68;85.38
38054;BME280;23859;50.672;7.164;2023-02-18T09:55:37;101209.34;;;12.90;80.97
38054;BME280;23859;50.672;7.164;2023-02-18T09:58:18;101215.81;;;12.97;79.50
38054;BME280;23859;50.672;7.164;2023-02-18T10:00:49;101207.00;;;12.76;80.55
38054;BME280;23859;50.672;7.164;2023-02-18T10:03:20;101202.81;;;12.83;79.69
38054;BME280;23859;50.672;7.164;2023-02-18T10:08:44;101187.34;;;13.54;76.41
38054;BME280;23859;50.672;7.164;2023-02-18T10:11:17;101193.41;;;13.65;76.79
38054;BME280;23859;50.672;7.164;2023-02-18T10:13:46;101187.63;;;13.70;75.44
38054;BME280;23859;50.672;7.164;2023-02-18T10:16:16;101194.50;;;13.72;75.93
38054;BME280;23859;50.672;7.164;2023-02-18T10:18:45;101182.16;;;13.71;75.38
38054;BME280;23859;50.672;7.164;2023-02-18T10:21:16;101190.72;;;13.46;74.98
38054;BME280;23859;50.672;7.164;2023-02-18T10:24:03;101184.69;;;13.54;76.50
38054;BME280;23859;50.672;7.164;2023-02-18T10:26:33;101192.72;;;13.44;76.06
38054;BME280;23859;50.672;7.164;2023-02-18T10:29:00;101193.94;;;13.22;78.12
38054;BME280;23859;50.672;7.164;2023-02-18T10:31:35;101193.66;;;13.06;78.72
38054;BME280;23859;50.672;7.164;2023-02-18T10:43:06;101188.31;;;13.06;79.53
38054;BME280;23859;50.672;7.164;2023-02-18T10:46:01;101181.84;;;13.08;80.27
38054;BME280;23859;50.672;7.164;2023-02-18T10:51:31;101167.56;;;13.47;77.71
38054;BME280;23859;50.672;7.164;2023-02-18T10:53:59;101167.97;;;13.33;78.86
38054;BME280;23859;50.672;7.164;2023-02-18T10:56:47;101155.75;;;13.49;77.90
38054;BME280;23859;50.672;7.164;2023-02-18T10:59:22;101158.84;;;13.64;78.68
38054;BME280;23859;50.672;7.164;2023-02-18T11:01:57;101151.50;;;13.75;76.03
38054;BME280;23859;50.672;7.164;2023-02-18T11:04:33;101158.25;;;13.79;75.55
38054;BME280;23859;50.672;7.164;2023-02-18T11:07:29;101161.63;;;13.72;76.26
38054;BME280;23859;50.672;7.164;2023-02-18T11:09:57;101155.72;;;13.87;76.10
38054;BME280;23859;50.672;7.164;2023-02-18T11:12:45;101159.94;;;13.80;75.84
38054;BME280;23859;50.672;7.164;2023-02-18T11:15:22;101160.59;;;14.01;75.18
38054;BME280;23859;50.672;7.164;2023-02-18T11:17:51;101158.09;;;14.09;74.97
38054;BME280;23859;50.672;7.164;2023-02-18T11:22:48;101164.25;;;14.09;74.57
38054;BME280;23859;50.672;7.164;2023-02-18T11:25:26;101163.47;;;13.71;76.45
38054;BME280;23859;50.672;7.164;2023-02-18T11:27:57;101161.47;;;13.83;77.97
38054;BME280;23859;50.672;7.164;2023-02-18T11:30:25;101173.88;;;13.55;80.21
38054;BME280;23859;50.672;7.164;2023-02-18T11:32:57;101184.00;;;13.52;85.81
38054;BME280;23859;50.672;7.164;2023-02-18T11:35:27;101182.16;;;13.24;88.49
38054;BME280;23859;50.672;7.164;2023-02-18T11:37:57;101093.47;;;12.34;90.32
38054;BME280;23859;50.672;7.164;2023-02-18T11:40:33;101189.75;;;12.80;93.22
38054;BME280;23859;50.672;7.164;2023-02-18T11:43:13;101196.94;;;12.50;94.90
38054;BME280;23859;50.672;7.164;2023-02-18T11:45:41;101202.41;;;12.48;97.93
38054;BME280;23859;50.672;7.164;2023-02-18T11:50:37;101198.09;;;12.27;100.00
38054;BME280;23859;50.672;7.164;2023-02-18T11:53:30;101196.59;;;12.13;100.00
38054;BME280;23859;50.672;7.164;2023-02-18T11:55:59;101190.44;;;12.13;100.00
38054;BME280;23859;50.672;7.164;2023-02-18T11:58:27;101199.72;;;12.18;100.00
38054;BME280;23859;50.672;7.164;2023-02-18T12:01:00;101196.28;;;12.07;100.00
38054;BME280;23859;50.672;7.164;2023-02-18T12:06:22;101191.66;;;12.29;100.00
38054;BME280;23859;50.672;7.164;2023-02-18T12:09:13;101196.53;;;12.24;100.00
38054;BME280;23859;50.672;7.164;2023-02-18T12:11:47;101194.16;;;11.81;100.00
38054;BME280;23859;50.672;7.164;2023-02-18T12:14:20;101204.34;;;11.96;100.00
38054;BME280;23859;50.672;7.164;2023-02-18T12:22:45;101183.78;;;11.98;100.00
38054;BME280;23859;50.672;7.164;2023-02-18T12:25:42;101185.84;;;11.95;100.00
38054;BME280;23859;50.672;7.164;2023-02-18T12:33:39;101174.09;;;11.97;100.00
38054;BME280;23859;50.672;7.164;2023-02-18T12:36:19;101175.72;;;12.18;100.00
38054;BME280;23859;50.672;7.164;2023-02-18T12:39:06;101175.66;;;12.29;100.00
38054;BME280;23859;50.672;7.164;2023-02-18T12:50:38;101187.13;;;11.80;100.00
38054;BME280;23859;50.672;7.164;2023-02-18T13:14:45;101185.84;;;11.95;100.00
38054;BME280;23859;50.672;7.164;2023-02-18T13:17:15;101184.44;;;12.20;100.00
38054;BME280;23859;50.672;7.164;2023-02-18T13:19:55;101185.41;;;12.40;100.00
38054;BME280;23859;50.672;7.164;2023-02-18T13:22:26;101187.88;;;12.32;100.00
38054;BME280;23859;50.672;7.164;2023-02-18T13:24:55;101188.22;;;12.18;100.00
38054;BME280;23859;50.672;7.164;2023-02-18T13:27:42;101193.91;;;12.34;100.00
38054;BME280;23859;50.672;7.164;2023-02-18T13:30:26;101193.34;;;12.30;100.00
38054;BME280;23859;50.672;7.164;2023-02-18T13:35:59;101181.34;;;12.45;100.00
38054;BME280;23859;50.672;7.164;2023-02-18T13:41:19;101192.31;;;12.52;100.00
38054;BME280;23859;50.672;7.164;2023-02-18T13:43:46;101190.41;;;12.63;100.00
38054;BME280;23859;50.672;7.164;2023-02-18T13:46:18;101187.00;;;12.61;100.00
38054;BME280;23859;50.672;7.164;2023-02-18T13:49:05;101179.44;;;12.57;100.00
38054;BME280;23859;50.672;7.164;2023-02-18T13:51:33;101175.31;;;12.53;100.00
38054;BME280;23859;50.672;7.164;2023-02-18T13:54:48;101176.63;;;12.58;100.00
38054;BME280;23859;50.672;7.164;2023-02-18T13:59:20;101179.22;;;12.78;100.00
38054;BME280;23859;50.672;7.164;2023-02-18T14:01:49;101179.50;;;12.75;100.00
38054;BME280;23859;50.672;7.164;2023-02-18T14:09:53;101169.31;;;12.90;100.00
38054;BME280;23859;50.672;7.164;2023-02-18T14:14:52;101173.03;;;13.27;100.00
38054;BME280;23859;50.672;7.164;2023-02-18T14:19:54;101167.66;;;13.17;100.00
38054;BME280;23859;50.672;7.164;2023-02-18T14:22:30;101161.63;;;13.25;100.00
38054;BME280;23859;50.672;7.164;2023-02-18T14:27:49;101155.34;;;13.44;98.92
38054;BME280;23859;50.672;7.164;2023-02-18T14:32:44;101149.28;;;13.42;95.20
38054;BME280;23859;50.672;7.164;2023-02-18T14:35:47;101146.31;;;13.45;98.28
38054;BME280;23859;50.672;7.164;2023-02-18T14:44:17;101156.03;;;13.46;94.46
38054;BME280;23859;50.672;7.164;2023-02-18T14:47:06;101147.88;;;13.38;94.28
38054;BME280;23859;50.672;7.164;2023-02-18T14:49:40;101148.84;;;13.28;93.68
38054;BME280;23859;50.672;7.164;2023-02-18T14:54:52;101148.16;;;13.26;94.61
38054;BME280;23859;50.672;7.164;2023-02-18T14:57:24;101148.84;;;13.28;93.21
38054;BME280;23859;50.672;7.164;2023-02-18T14:59:57;101154.75;;;13.13;95.00
38054;BME280;23859;50.672;7.164;2023-02-18T15:02:27;101153.47;;;13.07;94.27
38054;BME280;23859;50.672;7.164;2023-02-18T15:05:11;101154.88;;;13.02;95.26
38054;BME280;23859;50.672;7.164;2023-02-18T15:07:38;101140.41;;;12.95;94.21
38054;BME280;23859;50.672;7.164;2023-02-18T15:10:04;101148.69;;;13.01;93.94
38054;BME280;23859;50.672;7.164;2023-02-18T15:12:37;101150.81;;;13.07;94.33